Time;durP1;ratioP1;P1;durP2;ratioP2;P2;SDS_P1;SDS_P2;PMS_P1;PMS_P2;Temp;Humidity;BMP_temperature;BMP_pressure;BME280_temperature;BME280_humidity;BME280_pressure;Samples;Min_cycle;Max_cycle;Signal;HPM_P1;HPM_P2
2022/07/01 00:00:40;;;;;;;;;;;;;;;16.08;81.46;99923.63;1088704;54;19935;-84
2022/07/01 00:01:42;;;;;;;;;;;;;;;16.16;82.36;99920.84;1088697;54;19931;-84
2022/07/01 00:02:49;;;;;;;;;;;;;;;16.02;81.69;99917.13;1088727;54;19938;-84
2022/07/01 00:23:55;;;;;;;;;;;;;;;16.01;82.14;99910.91;1069755;54;20618;31
2022/07/01 00:29:42;;;;;;;;;;;;;;;15.79;83.86;99917.13;1087552;54;19931;-83
2022/07/01 00:30:43;;;;;;;;;;;;;;;15.72;84.05;99922.44;1088142;54;19942;-81
2022/07/01 00:31:49;;;;;;;;;;;;;;;15.66;84.14;99928.53;1088401;54;19927;-82
2022/07/01 00:32:52;;;;;;;;;;;;;;;15.62;84.74;99928.06;1088469;54;19927;-82
2022/07/01 00:33:59;;;;;;;;;;;;;;;15.59;85.21;99923.03;1088623;54;19950;-83
2022/07/01 00:35:00;;;;;;;;;;;;;;;15.51;85.56;99921.25;1088576;54;19942;-82
2022/07/01 00:36:10;;;;;;;;;;;;;;;15.51;85.61;99918.56;1088492;54;19942;-81
2022/07/01 00:37:11;;;;;;;;;;;;;;;15.47;85.77;99922.63;1088479;54;19958;-82
2022/07/01 00:38:15;;;;;;;;;;;;;;;15.55;85.88;99921.72;1088552;54;19943;-81
2022/07/01 00:39:19;;;;;;;;;;;;;;;15.53;86.52;99924.59;1088614;54;19960;-83
2022/07/01 00:40:25;;;;;;;;;;;;;;;15.50;86.28;99924.09;1088513;54;19942;-83
2022/07/01 00:41:26;;;;;;;;;;;;;;;15.50;86.66;99937.56;1088663;54;19926;-82
2022/07/01 01:09:33;;;;;;;;;;;;;;;15.46;86.66;99917.41;1087438;54;19934;-80
2022/07/01 01:10:35;;;;;;;;;;;;;;;15.42;86.48;99912.38;1087737;54;19954;-81
2022/07/01 01:11:39;;;;;;;;;;;;;;;15.41;86.44;99908.00;1087810;54;19971;-81
2022/07/01 01:12:40;;;;;;;;;;;;;;;15.43;86.60;99905.97;1088218;54;19943;-80
2022/07/01 01:13:44;;;;;;;;;;;;;;;15.44;86.11;99904.97;1088157;54;19943;-81
2022/07/01 01:14:46;;;;;;;;;;;;;;;15.44;85.95;99896.88;1088117;54;19942;-81
2022/07/01 01:15:50;;;;;;;;;;;;;;;15.50;85.77;99889.09;1088118;54;19927;-82
2022/07/01 01:16:51;;;;;;;;;;;;;;;15.48;86.46;99904.63;1088465;46;19965;-80
2022/07/01 01:17:55;;;;;;;;;;;;;;;15.43;85.95;99908.66;1087994;54;20831;-81
2022/07/01 01:18:56;;;;;;;;;;;;;;;15.46;85.96;99907.47;1088093;54;19943;-80
2022/07/01 01:20:00;;;;;;;;;;;;;;;15.48;85.72;99910.81;1088230;54;19927;-79
2022/07/01 01:21:04;;;;;;;;;;;;;;;15.64;85.60;99909.00;1088261;54;19939;-81
2022/07/01 01:22:07;;;;;;;;;;;;;;;15.47;84.63;99902.94;1088263;54;19943;-79
2022/07/01 01:23:11;;;;;;;;;;;;;;;15.41;84.90;99909.88;1087985;54;19926;-80
2022/07/01 01:24:13;;;;;;;;;;;;;;;15.39;85.29;99907.38;1088117;54;19942;-84
2022/07/01 01:25:17;;;;;;;;;;;;;;;15.39;85.51;99903.81;1088184;54;19946;-81
2022/07/01 01:26:19;;;;;;;;;;;;;;;15.46;86.05;99906.66;1094325;39;20574;-81
2022/07/01 01:27:23;;;;;;;;;;;;;;;15.51;86.18;99910.47;1088326;54;19942;-82
2022/07/01 01:28:24;;;;;;;;;;;;;;;15.38;84.90;99907.53;1088248;54;19963;-80
2022/07/01 01:29:28;;;;;;;;;;;;;;;15.29;85.47;99906.78;1088181;54;19946;-82
2022/07/01 01:30:39;;;;;;;;;;;;;;;15.29;85.17;99902.22;1088275;54;19943;-80
2022/07/01 01:31:43;;;;;;;;;;;;;;;15.27;84.93;99906.09;1088569;54;19949;-79
2022/07/01 01:32:44;;;;;;;;;;;;;;;15.29;85.16;99912.16;1088613;54;19942;-79
2022/07/01 01:33:48;;;;;;;;;;;;;;;15.22;85.31;99909.34;1088626;54;20503;-81
2022/07/01 01:34:49;;;;;;;;;;;;;;;15.29;85.83;99914.84;1088523;54;19943;-80
2022/07/01 01:35:52;;;;;;;;;;;;;;;15.33;85.46;99907.25;1088627;54;19960;-79
2022/07/01 01:36:56;;;;;;;;;;;;;;;15.32;85.67;99908.25;1088629;54;19947;-81
2022/07/01 01:38:00;;;;;;;;;;;;;;;15.39;85.34;99906.53;1088526;54;20588;-82
2022/07/01 01:39:04;;;;;;;;;;;;;;;15.51;85.17;99909.63;1088543;54;19934;-80
2022/07/01 01:40:16;;;;;;;;;;;;;;;15.32;84.75;99901.00;1088461;54;19942;-81
2022/07/01 01:41:17;;;;;;;;;;;;;;;15.23;85.25;99896.69;1088445;54;20425;-79
2022/07/01 01:42:21;;;;;;;;;;;;;;;15.16;84.98;99895.75;1088467;54;19942;-82
2022/07/01 01:43:22;;;;;;;;;;;;;;;15.30;85.56;99886.91;1088468;54;19934;-80
2022/07/01 01:44:26;;;;;;;;;;;;;;;15.35;85.55;99895.28;1088498;54;19927;-82
2022/07/01 01:45:28;;;;;;;;;;;;;;;15.31;85.44;99885.88;1088533;54;19942;-82
2022/07/01 01:46:31;;;;;;;;;;;;;;;15.29;84.83;99890.63;1088475;54;19935;-81
2022/07/01 01:47:33;;;;;;;;;;;;;;;15.28;85.24;99892.44;1088204;54;19951;-81
2022/07/01 01:48:36;;;;;;;;;;;;;;;15.38;85.69;99880.59;1088173;54;19946;-81
2022/07/01 01:49:43;;;;;;;;;;;;;;;15.43;85.57;99875.53;1088133;54;19943;-80
2022/07/01 01:50:51;;;;;;;;;;;;;;;15.56;84.46;99872.22;1087708;54;19927;-79
2022/07/01 01:51:53;;;;;;;;;;;;;;;15.49;84.02;99868.59;1088447;39;20729;-79
2022/07/01 01:53:00;;;;;;;;;;;;;;;15.51;84.67;99872.75;1087665;54;19952;-79
2022/07/01 01:54:01;;;;;;;;;;;;;;;15.55;85.17;99867.84;1088040;54;19950;-82
2022/07/01 01:55:15;;;;;;;;;;;;;;;15.34;83.87;99876.59;1087936;54;20460;-79
2022/07/01 01:56:16;;;;;;;;;;;;;;;15.42;84.99;99866.59;1088483;54;19942;-79
2022/07/01 01:57:21;;;;;;;;;;;;;;;15.39;84.42;99864.28;1088746;54;19946;-80
2022/07/01 01:58:22;;;;;;;;;;;;;;;15.37;84.78;99868.16;1088835;54;19930;-81
2022/07/01 01:59:44;;;;;;;;;;;;;;;15.40;84.80;99860.53;1088957;46;19987;-80
2022/07/01 02:00:45;;;;;;;;;;;;;;;15.45;84.50;99857.31;1088843;54;19934;-80
2022/07/01 02:01:50;;;;;;;;;;;;;;;15.32;84.19;99849.84;1090037;46;19942;-82
2022/07/01 02:02:51;;;;;;;;;;;;;;;15.29;84.17;99864.50;1092783;46;19982;-81
2022/07/01 02:04:01;;;;;;;;;;;;;;;15.28;84.49;99864.69;1089120;46;19931;-81
2022/07/01 02:35:20;;;;;;;;;;;;;;;15.22;82.30;99819.63;1087359;54;19997;-80
2022/07/01 02:52:32;;;;;;;;;;;;;;;15.27;81.76;99830.72;1085870;54;20096;-81
2022/07/01 02:55:03;;;;;;;;;;;;;;;15.53;81.77;99832.16;1087291;54;19935;-85
2022/07/01 02:57:38;;;;;;;;;;;;;;;15.34;81.38;99831.66;1088151;39;20377;-81
2022/07/01 03:01:22;;;;;;;;;;;;;;;15.41;81.02;99829.91;1088674;54;19938;-83
2022/07/01 03:08:57;;;;;;;;;;;;;;;15.29;81.36;99847.53;1079592;54;19923;-84
2022/07/01 03:09:58;;;;;;;;;;;;;;;15.29;81.77;99842.16;1088720;54;19978;-83
2022/07/01 03:12:34;;;;;;;;;;;;;;;15.26;82.27;99855.97;1073107;54;20018;-81
2022/07/01 03:15:01;;;;;;;;;;;;;;;15.10;81.94;99854.22;1078676;54;19946;-80
2022/07/01 03:16:06;;;;;;;;;;;;;;;15.18;82.09;99866.78;1080621;54;19959;-80
2022/07/01 03:39:37;;;;;;;;;;;;;;;15.38;80.54;99889.53;1087412;54;19941;-85
2022/07/01 03:40:41;;;;;;;;;;;;;;;15.48;81.03;99883.06;1074018;54;19933;-81
2022/07/01 03:58:10;;;;;;;;;;;;;;;15.57;79.47;99912.44;1087972;54;19967;-86
2022/07/01 03:59:11;;;;;;;;;;;;;;;15.60;79.71;99919.31;1088033;54;19931;-84
2022/07/01 04:00:15;;;;;;;;;;;;;;;15.51;79.80;99920.41;1095322;39;20581;-84
2022/07/01 04:01:17;;;;;;;;;;;;;;;15.31;79.63;99926.25;1087978;54;19943;-84
2022/07/01 04:02:20;;;;;;;;;;;;;;;15.39;79.92;99938.84;1088031;54;19942;-84
2022/07/01 04:03:22;;;;;;;;;;;;;;;15.40;79.03;99932.44;1087984;54;19942;-85
2022/07/01 04:04:26;;;;;;;;;;;;;;;15.46;79.08;99942.47;1088052;54;19950;-85
2022/07/01 04:05:27;;;;;;;;;;;;;;;15.41;79.66;99947.59;1087949;54;19942;-84
2022/07/01 04:06:31;;;;;;;;;;;;;;;15.39;80.01;99955.84;1088991;39;20546;-84
2022/07/01 04:07:32;;;;;;;;;;;;;;;15.36;80.22;99969.66;1088012;54;20094;-82
2022/07/01 04:08:36;;;;;;;;;;;;;;;15.32;80.19;99965.63;1087922;54;19942;-85
2022/07/01 04:09:37;;;;;;;;;;;;;;;15.25;79.90;99970.06;1087984;54;19967;-86
2022/07/01 04:10:42;;;;;;;;;;;;;;;15.22;79.56;99976.66;1087918;54;19943;-85
2022/07/01 04:11:44;;;;;;;;;;;;;;;15.29;80.19;99976.78;1087953;46;19969;-85
2022/07/01 04:12:48;;;;;;;;;;;;;;;15.39;80.06;99977.41;1088071;54;19954;-88
2022/07/01 04:13:52;;;;;;;;;;;;;;;15.41;79.87;99986.13;1087990;54;19966;-86
2022/07/01 04:14:56;;;;;;;;;;;;;;;15.36;79.68;99991.22;1088044;54;19942;-84
2022/07/01 04:15:57;;;;;;;;;;;;;;;15.31;79.44;99980.13;1090635;39;20602;-84
2022/07/01 04:17:02;;;;;;;;;;;;;;;15.24;79.03;99989.94;1088001;54;19957;-85
2022/07/01 04:18:03;;;;;;;;;;;;;;;15.25;78.88;99992.47;1088016;54;19949;-83
2022/07/01 04:19:07;;;;;;;;;;;;;;;15.28;78.81;99988.56;1087930;54;19945;-85
2022/07/01 04:20:09;;;;;;;;;;;;;;;15.38;78.50;99994.56;1088268;54;19926;-85
2022/07/01 04:22:40;;;;;;;;;;;;;;;15.34;78.06;99985.16;1088045;54;19939;-86
2022/07/01 04:23:42;;;;;;;;;;;;;;;15.34;78.44;99998.63;1090098;46;19943;-87
2022/07/01 04:24:45;;;;;;;;;;;;;;;15.22;78.64;100000.03;1092398;39;20161;-86
2022/07/01 04:25:47;;;;;;;;;;;;;;;15.22;78.76;100000.03;1088305;54;19935;-86
2022/07/01 04:26:51;;;;;;;;;;;;;;;15.20;78.79;100002.91;1088305;54;19993;-84
2022/07/01 04:27:52;;;;;;;;;;;;;;;15.33;79.24;100007.72;1088344;54;19941;-85
2022/07/01 04:28:58;;;;;;;;;;;;;;;15.29;78.36;100014.50;1088321;54;19950;-83
2022/07/01 04:30:02;;;;;;;;;;;;;;;15.21;78.81;100019.91;1088373;54;19942;-84
2022/07/01 04:31:03;;;;;;;;;;;;;;;15.25;78.85;100029.31;1088383;54;19943;-82
2022/07/01 04:32:08;;;;;;;;;;;;;;;15.20;78.82;100029.00;1088374;54;19930;-84
2022/07/01 04:33:09;;;;;;;;;;;;;;;15.31;79.01;100028.59;1088364;54;19943;-84
2022/07/01 04:34:13;;;;;;;;;;;;;;;15.35;78.73;100024.53;1088398;54;19938;-86
2022/07/01 04:35:17;;;;;;;;;;;;;;;15.22;78.29;100032.34;1087980;54;20653;-84
2022/07/01 04:36:18;;;;;;;;;;;;;;;15.27;78.56;100032.66;1087914;54;19966;-83
2022/07/01 04:37:22;;;;;;;;;;;;;;;15.21;78.70;100033.38;1087998;54;19949;-83
2022/07/01 04:38:23;;;;;;;;;;;;;;;15.19;78.95;100033.53;1088392;47;19935;-84
2022/07/01 04:39:27;;;;;;;;;;;;;;;15.31;78.47;100039.38;1088336;54;19954;-84
2022/07/01 04:40:28;;;;;;;;;;;;;;;15.33;77.98;100042.72;1088322;54;19942;-83
2022/07/01 04:42:48;;;;;;;;;;;;;;;15.20;78.46;100037.09;1088381;54;19927;-86
2022/07/01 04:43:49;;;;;;;;;;;;;;;15.18;78.24;100033.72;1088224;54;20006;-85
2022/07/01 04:44:55;;;;;;;;;;;;;;;15.27;78.74;100036.19;1088355;54;19942;-84
2022/07/01 04:45:57;;;;;;;;;;;;;;;15.21;78.17;100033.38;1088385;54;19934;-81
2022/07/01 04:47:01;;;;;;;;;;;;;;;15.25;78.52;100040.09;1088353;54;19942;-83
2022/07/01 04:48:03;;;;;;;;;;;;;;;15.39;78.39;100046.56;1088280;54;20570;-84
2022/07/01 04:49:06;;;;;;;;;;;;;;;15.42;77.73;100051.63;1088326;54;19989;-84
2022/07/01 04:50:11;;;;;;;;;;;;;;;15.38;77.94;100056.53;1088343;54;19939;-83
2022/07/01 04:51:12;;;;;;;;;;;;;;;15.35;78.09;100053.34;1088329;54;19942;-86
2022/07/01 04:52:16;;;;;;;;;;;;;;;15.28;77.97;100050.50;1088280;54;19973;-84
2022/07/01 04:53:17;;;;;;;;;;;;;;;15.19;77.79;100047.00;1087844;54;19934;-81
2022/07/01 04:54:21;;;;;;;;;;;;;;;15.32;77.46;100054.50;1089291;47;19949;-83
2022/07/01 04:55:22;;;;;;;;;;;;;;;15.27;77.52;100049.66;1088085;54;19943;-85
2022/07/01 04:56:26;;;;;;;;;;;;;;;15.37;77.63;100048.59;1088331;54;19941;-84
2022/07/01 04:57:30;;;;;;;;;;;;;;;15.20;77.16;100058.63;1088183;54;19950;-84
2022/07/01 04:58:31;;;;;;;;;;;;;;;15.34;77.35;100051.66;1088187;54;19923;-83
2022/07/01 04:59:36;;;;;;;;;;;;;;;15.27;77.05;100052.34;1088306;54;19942;-83
2022/07/01 05:00:40;;;;;;;;;;;;;;;15.21;76.97;100041.47;1088188;54;19934;-83
2022/07/01 05:01:43;;;;;;;;;;;;;;;15.26;77.44;100039.91;1090810;47;20300;-83
2022/07/01 05:02:44;;;;;;;;;;;;;;;15.31;77.43;100044.75;1088263;54;19954;-85
2022/07/01 05:03:48;;;;;;;;;;;;;;;15.22;77.61;100035.03;1089545;39;19987;-85
2022/07/01 05:04:52;;;;;;;;;;;;;;;15.23;77.64;100045.66;1088271;54;19931;-85
2022/07/01 05:05:53;;;;;;;;;;;;;;;15.32;77.47;100049.13;1088414;54;19941;-85
2022/07/01 05:06:57;;;;;;;;;;;;;;;15.18;77.30;100048.00;1088569;54;19998;-84
2022/07/01 05:07:58;;;;;;;;;;;;;;;15.21;77.84;100049.53;1088546;54;19927;-84
2022/07/01 05:09:02;;;;;;;;;;;;;;;15.25;77.39;100056.25;1088486;54;19935;-84
2022/07/01 05:10:07;;;;;;;;;;;;;;;15.21;77.60;100052.22;1088436;54;19983;-84
2022/07/01 05:11:08;;;;;;;;;;;;;;;15.29;77.69;100049.50;1090205;39;20711;-82
2022/07/01 05:12:12;;;;;;;;;;;;;;;15.38;77.41;100053.84;1088237;54;20658;-84
2022/07/01 05:13:13;;;;;;;;;;;;;;;15.28;77.49;100051.34;1088443;54;19942;-83
2022/07/01 05:14:17;;;;;;;;;;;;;;;15.22;77.89;100062.81;1088625;54;19974;-83
2022/07/01 05:15:18;;;;;;;;;;;;;;;15.22;78.38;100056.56;1089014;46;19939;-83
2022/07/01 05:16:25;;;;;;;;;;;;;;;15.19;78.69;100051.56;1090721;46;20002;-83
2022/07/01 05:21:55;;;;;;;;;;;;;;;15.20;78.54;100054.06;1088594;54;19935;-84
2022/07/01 05:22:39;;;;;;;;;;;;;;;15.30;77.60;100053.88;1088526;54;19933;-85
2022/07/01 05:23:41;;;;;;;;;;;;;;;15.39;77.46;100044.75;1089654;46;19931;-83
2022/07/01 05:24:44;;;;;;;;;;;;;;;15.46;77.00;100055.63;1088197;54;19949;-82
2022/07/01 05:25:46;;;;;;;;;;;;;;;15.43;77.33;100054.13;1088072;54;19942;-85
2022/07/01 05:26:49;;;;;;;;;;;;;;;15.44;77.63;100057.69;1088119;54;19982;-79
2022/07/01 05:27:54;;;;;;;;;;;;;;;15.48;78.04;100060.84;1087990;54;19949;-82
2022/07/01 05:28:55;;;;;;;;;;;;;;;15.38;77.73;100048.44;1087966;54;19950;-81
2022/07/01 05:29:59;;;;;;;;;;;;;;;15.49;77.95;100049.06;1088216;46;19958;-76
2022/07/01 05:31:00;;;;;;;;;;;;;;;15.63;77.17;100044.78;1088018;54;19942;-80
2022/07/01 05:32:06;;;;;;;;;;;;;;;15.58;77.72;100040.75;1090165;46;19946;-83
2022/07/01 05:33:08;;;;;;;;;;;;;;;15.44;78.06;100039.66;1088199;54;19943;-85
2022/07/01 05:34:11;;;;;;;;;;;;;;;15.40;78.01;100048.25;1088069;54;19946;-83
2022/07/01 05:35:15;;;;;;;;;;;;;;;15.50;78.49;100042.63;1088276;54;20003;-84
2022/07/01 05:36:16;;;;;;;;;;;;;;;15.46;78.95;100054.78;1088166;54;19942;-83
2022/07/01 05:37:21;;;;;;;;;;;;;;;15.37;78.82;100060.22;1089143;46;20031;-84
2022/07/01 05:38:22;;;;;;;;;;;;;;;15.31;79.80;100055.53;1088219;54;19946;-83
2022/07/01 05:39:27;;;;;;;;;;;;;;;15.27;80.21;100067.69;1088210;54;19954;-85
2022/07/01 05:40:28;;;;;;;;;;;;;;;15.26;79.83;100069.50;1088245;54;19986;-83
2022/07/01 05:41:32;;;;;;;;;;;;;;;15.29;79.46;100071.88;1088265;54;19949;-85
2022/07/01 05:42:37;;;;;;;;;;;;;;;15.18;79.46;100087.56;1088274;54;19942;-85
2022/07/01 05:43:38;;;;;;;;;;;;;;;15.22;79.38;100075.44;1088134;54;19950;-86
2022/07/01 05:44:42;;;;;;;;;;;;;;;15.22;79.58;100076.28;1088163;54;20006;-87
2022/07/01 05:45:43;;;;;;;;;;;;;;;15.31;79.62;100071.69;1088351;54;19950;-85
2022/07/01 05:46:47;;;;;;;;;;;;;;;15.44;79.12;100066.59;1088217;54;20006;-85
2022/07/01 05:47:51;;;;;;;;;;;;;;;15.47;78.87;100070.78;1088325;54;19942;-85
2022/07/01 05:48:54;;;;;;;;;;;;;;;15.53;78.67;100069.22;1088577;54;19943;-86
2022/07/01 05:49:58;;;;;;;;;;;;;;;15.43;78.88;100064.06;1088687;54;19942;-85
2022/07/01 05:50:59;;;;;;;;;;;;;;;15.36;78.63;100065.78;1088871;46;19934;-83
2022/07/01 05:52:03;;;;;;;;;;;;;;;15.34;78.66;100067.81;1088591;54;19998;-85
2022/07/01 05:53:04;;;;;;;;;;;;;;;15.47;78.71;100069.94;1088629;54;19943;-84
2022/07/01 05:54:08;;;;;;;;;;;;;;;15.47;78.25;100053.78;1089480;46;19942;-87
2022/07/01 05:55:09;;;;;;;;;;;;;;;15.58;78.19;100056.09;1088610;54;19943;-86
2022/07/01 06:43:32;;;;;;;;;;;;;;;15.43;81.25;100091.84;1085506;54;19943;31
2022/07/01 06:45:46;;;;;;;;;;;;;;;15.44;81.51;100100.78;1080783;54;19954;31
2022/07/01 06:47:54;;;;;;;;;;;;;;;15.55;81.64;100100.34;1088972;54;19923;-88
2022/07/01 06:54:17;;;;;;;;;;;;;;;15.63;81.16;100101.34;1087587;54;21276;-87
2022/07/01 06:55:24;;;;;;;;;;;;;;;15.55;81.44;100100.34;1086040;54;19967;31
2022/07/01 06:56:29;;;;;;;;;;;;;;;15.55;81.12;100096.84;1083251;54;19939;-85
2022/07/01 06:58:38;;;;;;;;;;;;;;;15.38;81.18;100094.22;1088448;54;19949;-85
2022/07/01 06:59:40;;;;;;;;;;;;;;;15.42;81.86;100092.03;1088607;54;19939;-85
2022/07/01 07:00:44;;;;;;;;;;;;;;;15.49;81.94;100090.31;1088647;54;19935;-84
2022/07/01 07:04:01;;;;;;;;;;;;;;;15.47;82.06;100086.94;1081276;54;21485;-86
2022/07/01 07:05:13;;;;;;;;;;;;;;;15.55;81.74;100088.75;1077793;54;19943;-86
2022/07/01 07:06:15;;;;;;;;;;;;;;;15.49;82.08;100090.31;1081193;39;21071;31
2022/07/01 07:08:22;;;;;;;;;;;;;;;15.52;82.08;100105.25;1073394;54;20854;31
2022/07/01 07:10:38;;;;;;;;;;;;;;;15.38;81.99;100107.69;1067514;54;19955;31
2022/07/01 07:15:52;;;;;;;;;;;;;;;15.13;83.98;100118.53;1067368;54;20849;31
2022/07/01 07:17:00;;;;;;;;;;;;;;;15.06;84.03;100125.63;1067522;54;20810;31
2022/07/01 07:21:13;;;;;;;;;;;;;;;15.12;83.24;100124.94;1089190;54;19926;-87
2022/07/01 07:23:20;;;;;;;;;;;;;;;15.23;84.49;100136.34;1071099;54;20898;31
2022/07/01 07:24:25;;;;;;;;;;;;;;;15.34;83.75;100133.28;1067993;54;20015;31
2022/07/01 07:26:34;;;;;;;;;;;;;;;15.13;83.85;100140.06;1068256;54;19954;31
2022/07/01 07:27:37;;;;;;;;;;;;;;;15.11;84.82;100133.19;1067635;54;19942;31
2022/07/01 07:30:46;;;;;;;;;;;;;;;14.90;84.41;100142.66;1067335;54;19947;31
2022/07/01 07:31:53;;;;;;;;;;;;;;;15.06;84.23;100139.09;1067731;54;19953;31
2022/07/01 07:34:03;;;;;;;;;;;;;;;15.27;83.12;100135.00;1067166;54;19946;31
2022/07/01 07:35:11;;;;;;;;;;;;;;;15.24;82.73;100129.97;1068531;39;21330;31
2022/07/01 07:39:30;;;;;;;;;;;;;;;15.21;81.22;100122.25;1088606;54;19933;-86
2022/07/01 07:43:52;;;;;;;;;;;;;;;15.37;81.93;100132.09;1088716;54;20896;-85
2022/07/01 07:44:55;;;;;;;;;;;;;;;15.33;81.70;100128.09;1068248;54;19953;31
2022/07/01 07:46:00;;;;;;;;;;;;;;;15.29;82.20;100136.50;1068974;39;20259;31
2022/07/01 07:48:18;;;;;;;;;;;;;;;15.51;81.80;100126.00;1067743;54;20261;31
2022/07/01 07:49:23;;;;;;;;;;;;;;;15.54;80.81;100132.88;1073303;46;20812;31
2022/07/01 07:53:44;;;;;;;;;;;;;;;15.23;80.82;100139.03;1068037;54;20820;31
2022/07/01 07:56:58;;;;;;;;;;;;;;;15.29;81.87;100149.97;1076418;54;19978;-87
2022/07/01 07:59:36;;;;;;;;;;;;;;;15.37;82.37;100146.41;1075322;54;20957;31
2022/07/01 08:01:41;;;;;;;;;;;;;;;15.41;81.70;100141.53;1090400;46;19934;-86
2022/07/01 08:04:49;;;;;;;;;;;;;;;15.56;81.25;100131.69;1088825;54;19943;-86
2022/07/01 08:06:55;;;;;;;;;;;;;;;15.52;81.61;100135.75;1088204;54;19943;-86
2022/07/01 08:07:56;;;;;;;;;;;;;;;15.57;80.52;100129.84;1088380;54;19943;-85
2022/07/01 08:10:08;;;;;;;;;;;;;;;15.50;80.63;100145.00;1071023;54;19950;-87
2022/07/01 08:11:18;;;;;;;;;;;;;;;15.70;79.71;100137.34;1081443;46;20940;31
2022/07/01 08:14:29;;;;;;;;;;;;;;;15.63;79.04;100137.22;1078533;54;21191;31
2022/07/01 08:15:32;;;;;;;;;;;;;;;15.78;79.36;100139.16;1067429;54;20906;31
2022/07/01 08:18:40;;;;;;;;;;;;;;;16.02;78.88;100132.81;1088550;54;19958;-87
2022/07/01 08:20:52;;;;;;;;;;;;;;;16.10;78.10;100134.63;1088994;54;19933;-85
2022/07/01 08:23:01;;;;;;;;;;;;;;;15.73;77.89;100148.63;1066729;54;19947;31
2022/07/01 08:25:09;;;;;;;;;;;;;;;15.66;78.68;100163.81;1088360;54;19943;-87
2022/07/01 08:28:21;;;;;;;;;;;;;;;15.65;78.37;100169.38;1074939;39;21590;31
2022/07/01 08:29:28;;;;;;;;;;;;;;;15.68;78.55;100169.03;1067463;54;20010;31
2022/07/01 08:31:45;;;;;;;;;;;;;;;15.52;77.81;100176.16;1071173;54;19949;31
2022/07/01 08:32:52;;;;;;;;;;;;;;;15.59;78.34;100173.59;1081747;46;19990;-86
2022/07/01 08:33:58;;;;;;;;;;;;;;;15.67;78.62;100178.97;1066948;54;20942;31
2022/07/01 08:36:07;;;;;;;;;;;;;;;15.74;78.92;100179.94;1066890;54;19954;31
2022/07/01 09:09:29;;;;;;;;;;;;;;;15.79;77.78;100219.00;1080495;54;19926;31
2022/07/01 09:11:52;;;;;;;;;;;;;;;15.70;78.03;100220.91;1075036;54;19947;31
2022/07/01 09:15:20;;;;;;;;;;;;;;;15.84;78.66;100212.09;1088431;54;19987;-86
2022/07/01 09:18:28;;;;;;;;;;;;;;;15.88;78.63;100208.03;1088009;54;19943;-87
2022/07/01 09:19:34;;;;;;;;;;;;;;;15.74;77.74;100217.69;1092045;47;19946;-85
2022/07/01 09:24:06;;;;;;;;;;;;;;;15.79;78.38;100216.28;1079760;54;21350;-85
2022/07/01 10:55:50;;;;;;;;;;;;;;;17.17;70.47;100238.19;1087579;54;19933;-79
2022/07/01 10:56:51;;;;;;;;;;;;;;;17.11;71.26;100245.16;1088449;54;19934;-77
2022/07/01 10:57:56;;;;;;;;;;;;;;;17.12;71.79;100225.25;1089176;46;19950;-77
2022/07/01 10:59:01;;;;;;;;;;;;;;;17.21;71.91;100240.34;1088475;54;19942;-77
2022/07/01 11:00:20;;;;;;;;;;;;;;;17.15;69.81;100241.09;1089570;46;19942;-79
2022/07/01 11:01:23;;;;;;;;;;;;;;;17.38;70.43;100240.22;1088471;54;20507;-76
2022/07/01 11:02:25;;;;;;;;;;;;;;;17.51;70.24;100247.66;1088429;54;19974;-78
2022/07/01 11:03:29;;;;;;;;;;;;;;;17.43;69.03;100251.28;1088471;54;19946;-78
2022/07/01 11:04:36;;;;;;;;;;;;;;;17.55;69.55;100252.53;1088400;54;19950;-78
2022/07/01 11:05:40;;;;;;;;;;;;;;;17.81;68.83;100242.25;1088730;46;19942;-76
2022/07/01 11:06:44;;;;;;;;;;;;;;;17.95;67.63;100244.09;1088551;54;19927;-79
2022/07/01 11:07:46;;;;;;;;;;;;;;;17.80;68.21;100254.09;1088404;54;19942;-77
2022/07/01 11:08:50;;;;;;;;;;;;;;;17.81;67.70;100251.22;1088050;54;19950;-77
2022/07/01 11:09:51;;;;;;;;;;;;;;;17.87;67.84;100255.84;1088071;54;19942;-78
2022/07/01 11:11:01;;;;;;;;;;;;;;;17.99;67.77;100255.41;1088056;54;19950;-77
2022/07/01 11:12:03;;;;;;;;;;;;;;;17.82;66.79;100250.19;1088365;54;19949;-77
2022/07/01 11:13:07;;;;;;;;;;;;;;;17.89;67.03;100256.50;1090881;39;20562;-78
2022/07/01 11:14:11;;;;;;;;;;;;;;;17.81;67.13;100256.63;1088427;54;19927;-76
2022/07/01 11:15:13;;;;;;;;;;;;;;;17.89;66.69;100253.81;1089206;46;19949;-78
2022/07/01 11:16:17;;;;;;;;;;;;;;;18.04;66.75;100250.28;1088409;54;19927;-78
2022/07/01 11:17:18;;;;;;;;;;;;;;;18.19;66.49;100247.53;1088396;54;19943;-77
2022/07/01 11:18:22;;;;;;;;;;;;;;;18.23;65.00;100246.97;1096679;39;20477;-80
2022/07/01 11:19:24;;;;;;;;;;;;;;;18.23;63.97;100252.38;1088438;54;19945;-79
2022/07/01 11:20:28;;;;;;;;;;;;;;;18.20;64.85;100254.63;1088417;54;19935;-79
2022/07/01 11:21:32;;;;;;;;;;;;;;;18.20;64.45;100255.47;1088410;54;19942;-78
2022/07/01 11:22:34;;;;;;;;;;;;;;;18.34;64.75;100252.91;1088429;54;19942;-79
2022/07/01 11:23:38;;;;;;;;;;;;;;;18.47;64.69;100242.25;1088639;46;19942;-77
2022/07/01 11:24:39;;;;;;;;;;;;;;;18.27;62.59;100244.75;1088420;54;19943;-78
2022/07/01 11:25:43;;;;;;;;;;;;;;;18.34;62.97;100250.22;1089270;46;19943;-78
2022/07/01 11:26:50;;;;;;;;;;;;;;;18.31;62.96;100251.44;1088049;54;19946;-78
2022/07/01 11:27:51;;;;;;;;;;;;;;;18.34;63.36;100255.63;1088060;54;19943;-78
2022/07/01 11:28:55;;;;;;;;;;;;;;;18.04;62.35;100256.53;1088312;54;20613;-81
2022/07/01 11:29:57;;;;;;;;;;;;;;;17.85;62.76;100259.78;1089560;46;19942;-80
2022/07/01 11:31:02;;;;;;;;;;;;;;;17.86;63.37;100248.75;1088509;54;19927;-80
2022/07/01 11:32:04;;;;;;;;;;;;;;;17.72;62.42;100246.91;1088702;46;20638;-79
2022/07/01 11:33:07;;;;;;;;;;;;;;;17.68;62.79;100248.31;1088503;54;20006;-80
2022/07/01 11:34:08;;;;;;;;;;;;;;;17.64;62.77;100260.53;1088450;54;19927;-78
2022/07/01 11:40:20;;;;;;;;;;;;;;;17.87;62.19;100238.81;1088548;54;19934;-81
2022/07/01 11:41:24;;;;;;;;;;;;;;;17.98;61.79;100242.91;1088476;54;19942;-78
2022/07/01 11:42:31;;;;;;;;;;;;;;;18.15;61.65;100243.56;1088559;54;19934;-81
2022/07/01 11:43:33;;;;;;;;;;;;;;;18.13;61.18;100241.03;1092027;46;19959;-78
2022/07/01 11:44:38;;;;;;;;;;;;;;;18.23;61.26;100238.84;1088535;54;19939;-80
2022/07/01 11:45:41;;;;;;;;;;;;;;;18.43;61.55;100238.22;1088291;54;19926;-79
2022/07/01 11:46:51;;;;;;;;;;;;;;;18.68;60.91;100235.16;1089844;46;19962;-77
2022/07/01 11:47:53;;;;;;;;;;;;;;;18.86;60.87;100235.53;1088166;54;19950;-81
2022/07/01 11:48:57;;;;;;;;;;;;;;;18.98;59.87;100227.75;1087951;54;19962;-77
2022/07/01 11:49:59;;;;;;;;;;;;;;;19.09;60.00;100233.69;1087966;54;19959;-81
2022/07/01 11:51:03;;;;;;;;;;;;;;;19.24;59.37;100230.88;1088172;54;19939;-80
2022/07/01 11:52:09;;;;;;;;;;;;;;;19.07;58.61;100233.88;1088112;54;19952;-80
2022/07/01 11:53:11;;;;;;;;;;;;;;;19.12;58.41;100236.81;1088069;54;19943;-78
2022/07/01 11:54:22;;;;;;;;;;;;;;;19.11;57.82;100232.44;1087997;54;19943;-81
2022/07/01 11:55:26;;;;;;;;;;;;;;;19.27;58.35;100235.91;1088025;54;19942;-80
2022/07/01 11:56:28;;;;;;;;;;;;;;;19.40;58.28;100225.13;1087613;54;20712;-79
2022/07/01 11:57:34;;;;;;;;;;;;;;;19.41;58.17;100234.94;1087945;54;19943;-81
2022/07/01 11:58:49;;;;;;;;;;;;;;;19.39;57.79;100228.88;1089907;46;19950;-82
2022/07/01 11:59:54;;;;;;;;;;;;;;;19.25;58.54;100233.38;1088046;54;19943;-80
2022/07/01 12:00:55;;;;;;;;;;;;;;;19.29;58.39;100234.66;1087945;54;19958;-79
2022/07/01 12:01:59;;;;;;;;;;;;;;;19.44;58.52;100236.41;1088049;54;19942;-80
2022/07/01 12:03:00;;;;;;;;;;;;;;;19.50;57.55;100241.06;1088040;54;19943;-78
2022/07/01 12:04:05;;;;;;;;;;;;;;;19.47;57.58;100231.44;1087925;54;19994;-81
2022/07/01 12:05:07;;;;;;;;;;;;;;;19.20;58.03;100230.44;1087983;54;19938;-81
2022/07/01 12:06:10;;;;;;;;;;;;;;;18.97;58.10;100233.38;1088310;46;19943;-82
2022/07/01 12:07:21;;;;;;;;;;;;;;;19.06;57.94;100231.34;1089664;46;19934;-80
2022/07/01 12:08:28;;;;;;;;;;;;;;;19.30;57.07;100230.06;1087986;54;19939;-80
2022/07/01 12:09:32;;;;;;;;;;;;;;;19.38;56.68;100231.81;1089582;46;19962;-78
2022/07/01 12:10:33;;;;;;;;;;;;;;;19.29;56.58;100225.69;1088001;54;19965;-81